sensor_id;sensor_type;location;lat;lon;timestamp;pressure;altitude;pressure_sealevel;temperature;humidity
49102;BME280;34913;47.520;19.186;2022-08-01T00:00:33;99711.34;;;15.89;78.81
49102;BME280;34913;47.520;19.186;2022-08-01T00:02:58;99714.03;;;15.89;78.56
49102;BME280;34913;47.520;19.186;2022-08-01T00:05:24;99721.03;;;15.82;77.47
49102;BME280;34913;47.520;19.186;2022-08-01T00:07:49;99720.69;;;15.85;78.46
49102;BME280;34913;47.520;19.186;2022-08-01T00:10:16;99717.84;;;15.86;78.08
49102;BME280;34913;47.520;19.186;2022-08-01T00:12:43;99714.84;;;15.81;77.90
49102;BME280;34913;47.520;19.186;2022-08-01T00:15:10;99703.31;;;15.73;77.50
49102;BME280;34913;47.520;19.186;2022-08-01T00:17:36;99706.31;;;15.70;78.74
49102;BME280;34913;47.520;19.186;2022-08-01T00:20:04;99712.84;;;15.67;78.54
49102;BME280;34913;47.520;19.186;2022-08-01T00:22:31;99709.66;;;15.63;79.76
49102;BME280;34913;47.520;19.186;2022-08-01T00:24:56;99709.09;;;15.52;79.22
49102;BME280;34913;47.520;19.186;2022-08-01T00:27:22;99706.59;;;15.42;80.26
49102;BME280;34913;47.520;19.186;2022-08-01T00:29:47;99711.41;;;15.39;80.73
49102;BME280;34913;47.520;19.186;2022-08-01T00:32:13;99691.53;;;15.33;80.76
49102;BME280;34913;47.520;19.186;2022-08-01T00:34:38;99695.72;;;15.27;81.05
49102;BME280;34913;47.520;19.186;2022-08-01T00:37:04;99693.03;;;15.27;80.81
49102;BME280;34913;47.520;19.186;2022-08-01T00:39:29;99696.53;;;15.28;80.60
49102;BME280;34913;47.520;19.186;2022-08-01T00:41:55;99690.84;;;15.31;81.23
49102;BME280;34913;47.520;19.186;2022-08-01T00:44:20;99700.22;;;15.35;80.13
49102;BME280;34913;47.520;19.186;2022-08-01T00:46:45;99688.69;;;15.34;80.06
49102;BME280;34913;47.520;19.186;2022-08-01T00:49:11;99691.19;;;15.36;79.55
49102;BME280;34913;47.520;19.186;2022-08-01T00:51:38;99684.34;;;15.33;79.69
49102;BME280;34913;47.520;19.186;2022-08-01T00:54:04;99691.88;;;15.38;79.17
49102;BME280;34913;47.520;19.186;2022-08-01T00:56:29;99690.56;;;15.42;79.29
49102;BME280;34913;47.520;19.186;2022-08-01T00:58:56;99689.91;;;15.48;78.80
49102;BME280;34913;47.520;19.186;2022-08-01T01:01:22;99681.69;;;15.50;78.67
49102;BME280;34913;47.520;19.186;2022-08-01T01:03:49;99669.81;;;15.44;78.00
49102;BME280;34913;47.520;19.186;2022-08-01T01:09:33;99682.72;;;15.49;78.42
49102;BME280;34913;47.520;19.186;2022-08-01T01:12:13;99683.84;;;15.54;78.08
49102;BME280;34913;47.520;19.186;2022-08-01T01:17:35;99680.88;;;15.57;77.94
49102;BME280;34913;47.520;19.186;2022-08-01T01:20:03;99679.69;;;15.52;78.14
49102;BME280;34913;47.520;19.186;2022-08-01T01:30:55;99675.53;;;15.57;77.40
49102;BME280;34913;47.520;19.186;2022-08-01T01:33:23;99679.19;;;15.56;77.17
49102;BME280;34913;47.520;19.186;2022-08-01T01:35:52;99674.81;;;15.55;77.80
49102;BME280;34913;47.520;19.186;2022-08-01T01:38:26;99669.00;;;15.52;78.04
49102;BME280;34913;47.520;19.186;2022-08-01T01:40:53;99674.81;;;15.55;77.93
49102;BME280;34913;47.520;19.186;2022-08-01T01:43:21;99672.66;;;15.51;77.89
49102;BME280;34913;47.520;19.186;2022-08-01T01:45:49;99674.69;;;15.49;78.08
49102;BME280;34913;47.520;19.186;2022-08-01T01:48:18;99679.69;;;15.52;78.56
49102;BME280;34913;47.520;19.186;2022-08-01T01:50:46;99680.34;;;15.54;78.02
49102;BME280;34913;47.520;19.186;2022-08-01T01:53:12;99680.69;;;15.51;78.11
49102;BME280;34913;47.520;19.186;2022-08-01T01:55:40;99663.81;;;15.42;78.08
49102;BME280;34913;47.520;19.186;2022-08-01T01:58:07;99674.16;;;15.37;79.35
49102;BME280;34913;47.520;19.186;2022-08-01T02:00:35;99676.16;;;15.27;79.34
49102;BME280;34913;47.520;19.186;2022-08-01T02:03:05;99680.31;;;15.29;80.53
49102;BME280;34913;47.520;19.186;2022-08-01T02:05:32;99675.63;;;15.23;80.87
49102;BME280;34913;47.520;19.186;2022-08-01T02:08:01;99668.44;;;15.24;80.16
49102;BME280;34913;47.520;19.186;2022-08-01T02:10:28;99673.13;;;15.22;80.53
49102;BME280;34913;47.520;19.186;2022-08-01T02:13:00;99653.22;;;15.08;80.56
49102;BME280;34913;47.520;19.186;2022-08-01T02:15:27;99670.13;;;15.17;80.40
49102;BME280;34913;47.520;19.186;2022-08-01T02:17:55;99669.59;;;15.13;80.63
49102;BME280;34913;47.520;19.186;2022-08-01T02:20:22;99667.28;;;15.18;81.16
49102;BME280;34913;47.520;19.186;2022-08-01T02:22:50;99665.75;;;15.24;82.54
49102;BME280;34913;47.520;19.186;2022-08-01T02:25:22;99672.97;;;15.23;82.35
49102;BME280;34913;47.520;19.186;2022-08-01T02:27:59;99663.59;;;15.19;81.19
49102;BME280;34913;47.520;19.186;2022-08-01T02:30:32;99663.78;;;15.18;81.98
49102;BME280;34913;47.520;19.186;2022-08-01T02:33:02;99666.44;;;15.18;81.92
49102;BME280;34913;47.520;19.186;2022-08-01T02:35:31;99669.25;;;15.16;81.68
49102;BME280;34913;47.520;19.186;2022-08-01T02:37:59;99668.94;;;15.11;82.63
49102;BME280;34913;47.520;19.186;2022-08-01T02:40:29;99668.75;;;15.04;82.46
49102;BME280;34913;47.520;19.186;2022-08-01T02:42:59;99673.44;;;15.02;84.00
49102;BME280;34913;47.520;19.186;2022-08-01T02:45:26;99665.88;;;14.98;83.26
49102;BME280;34913;47.520;19.186;2022-08-01T02:47:58;99665.22;;;14.96;83.36
49102;BME280;34913;47.520;19.186;2022-08-01T02:50:26;99670.56;;;14.96;83.42
49102;BME280;34913;47.520;19.186;2022-08-01T02:52:54;99662.19;;;14.91;83.45
49102;BME280;34913;47.520;19.186;2022-08-01T02:55:20;99659.03;;;14.87;83.53
49102;BME280;34913;47.520;19.186;2022-08-01T02:57:49;99666.38;;;14.85;84.04
49102;BME280;34913;47.520;19.186;2022-08-01T03:00:16;99669.50;;;14.80;84.78
49102;BME280;34913;47.520;19.186;2022-08-01T03:02:43;99660.00;;;14.78;84.15
49102;BME280;34913;47.520;19.186;2022-08-01T03:05:11;99664.97;;;14.73;85.44
49102;BME280;34913;47.520;19.186;2022-08-01T03:07:38;99664.63;;;14.68;85.28
49102;BME280;34913;47.520;19.186;2022-08-01T03:10:04;99663.06;;;14.57;85.61
49102;BME280;34913;47.520;19.186;2022-08-01T03:12:33;99664.72;;;14.50;87.33
49102;BME280;34913;47.520;19.186;2022-08-01T03:15:00;99666.72;;;14.48;87.34
49102;BME280;34913;47.520;19.186;2022-08-01T03:17:28;99665.88;;;14.47;86.20
49102;BME280;34913;47.520;19.186;2022-08-01T03:19:56;99665.56;;;14.50;87.91
49102;BME280;34913;47.520;19.186;2022-08-01T03:22:24;99655.69;;;14.51;86.88
49102;BME280;34913;47.520;19.186;2022-08-01T03:24:52;99662.81;;;14.42;87.11
49102;BME280;34913;47.520;19.186;2022-08-01T03:27:19;99653.47;;;14.38;88.00
49102;BME280;34913;47.520;19.186;2022-08-01T03:29:47;99658.94;;;14.37;87.83
49102;BME280;34913;47.520;19.186;2022-08-01T03:32:14;99657.81;;;14.39;87.44
49102;BME280;34913;47.520;19.186;2022-08-01T03:34:41;99655.75;;;14.33;87.18
49102;BME280;34913;47.520;19.186;2022-08-01T03:39:58;99660.25;;;14.33;87.77
49102;BME280;34913;47.520;19.186;2022-08-01T03:42:44;99654.09;;;14.32;88.08
49102;BME280;34913;47.520;19.186;2022-08-01T03:45:21;99659.47;;;14.40;89.09
49102;BME280;34913;47.520;19.186;2022-08-01T03:47:49;99658.03;;;14.46;87.71
49102;BME280;34913;47.520;19.186;2022-08-01T03:50:21;99654.78;;;14.42;88.14
49102;BME280;34913;47.520;19.186;2022-08-01T03:52:48;99657.47;;;14.42;88.71
49102;BME280;34913;47.520;19.186;2022-08-01T03:55:15;99658.03;;;14.46;88.18
49102;BME280;34913;47.520;19.186;2022-08-01T03:57:42;99658.13;;;14.44;88.64
49102;BME280;34913;47.520;19.186;2022-08-01T04:00:09;99663.81;;;14.41;88.88
49102;BME280;34913;47.520;19.186;2022-08-01T04:02:36;99662.66;;;14.44;90.32
49102;BME280;34913;47.520;19.186;2022-08-01T04:05:03;99668.38;;;14.49;88.95
49102;BME280;34913;47.520;19.186;2022-08-01T04:07:32;99660.41;;;14.57;88.29
49102;BME280;34913;47.520;19.186;2022-08-01T04:10:00;99659.13;;;14.69;88.67
49102;BME280;34913;47.520;19.186;2022-08-01T04:12:26;99655.31;;;14.80;87.65
49102;BME280;34913;47.520;19.186;2022-08-01T04:14:52;99665.22;;;14.96;87.72
49102;BME280;34913;47.520;19.186;2022-08-01T04:17:17;99668.38;;;14.99;88.60
49102;BME280;34913;47.520;19.186;2022-08-01T04:19:44;99671.09;;;15.16;88.32
49102;BME280;34913;47.520;19.186;2022-08-01T04:22:11;99657.09;;;15.30;86.76
49102;BME280;34913;47.520;19.186;2022-08-01T04:24:39;99664.00;;;15.65;84.60
49102;BME280;34913;47.520;19.186;2022-08-01T04:27:08;99665.31;;;15.94;83.61
49102;BME280;34913;47.520;19.186;2022-08-01T04:29:36;99670.59;;;16.34;81.45
49102;BME280;34913;47.520;19.186;2022-08-01T04:32:02;99668.72;;;16.90;79.10
49102;BME280;34913;47.520;19.186;2022-08-01T04:34:30;99671.25;;;17.46;76.73
49102;BME280;34913;47.520;19.186;2022-08-01T04:36:57;99664.28;;;17.97;73.87
49102;BME280;34913;47.520;19.186;2022-08-01T04:39:25;99668.31;;;18.60;71.90
49102;BME280;34913;47.520;19.186;2022-08-01T04:41:55;99676.41;;;19.47;67.40
49102;BME280;34913;47.520;19.186;2022-08-01T04:44:23;99656.00;;;19.81;65.66
49102;BME280;34913;47.520;19.186;2022-08-01T04:46:50;99677.03;;;20.20;64.97
49102;BME280;34913;47.520;19.186;2022-08-01T04:49:20;99675.84;;;20.57;63.03
49102;BME280;34913;47.520;19.186;2022-08-01T04:51:52;99673.25;;;21.25;60.82
49102;BME280;34913;47.520;19.186;2022-08-01T04:54:24;99676.44;;;21.62;59.06
49102;BME280;34913;47.520;19.186;2022-08-01T04:56:50;99681.44;;;22.31;58.40
49102;BME280;34913;47.520;19.186;2022-08-01T04:59:15;99681.16;;;22.66;56.30
49102;BME280;34913;47.520;19.186;2022-08-01T05:01:59;99681.72;;;22.88;55.11
49102;BME280;34913;47.520;19.186;2022-08-01T05:04:24;99692.06;;;23.04;54.83
49102;BME280;34913;47.520;19.186;2022-08-01T05:06:50;99678.91;;;23.46;53.33
49102;BME280;34913;47.520;19.186;2022-08-01T05:09:15;99682.53;;;23.39;53.54
49102;BME280;34913;47.520;19.186;2022-08-01T05:11:41;99677.25;;;23.06;52.31
49102;BME280;34913;47.520;19.186;2022-08-01T05:14:06;99669.03;;;22.88;53.47
49102;BME280;34913;47.520;19.186;2022-08-01T05:16:31;99669.63;;;23.35;52.44
49102;BME280;34913;47.520;19.186;2022-08-01T05:18:57;99666.13;;;23.28;51.64
49102;BME280;34913;47.520;19.186;2022-08-01T05:21:22;99672.38;;;22.77;52.33
49102;BME280;34913;47.520;19.186;2022-08-01T05:23:48;99683.31;;;23.08;52.86
49102;BME280;34913;47.520;19.186;2022-08-01T05:26:14;99684.00;;;23.35;51.65
49102;BME280;34913;47.520;19.186;2022-08-01T05:28:39;99673.91;;;23.49;50.61
49102;BME280;34913;47.520;19.186;2022-08-01T05:31:05;99679.16;;;23.76;50.73
49102;BME280;34913;47.520;19.186;2022-08-01T05:33:30;99686.06;;;23.78;49.79
49102;BME280;34913;47.520;19.186;2022-08-01T05:35:56;99671.13;;;23.94;49.88
49102;BME280;34913;47.520;19.186;2022-08-01T05:38:21;99678.28;;;24.07;48.61
49102;BME280;34913;47.520;19.186;2022-08-01T05:40:46;99672.44;;;24.10;50.50
49102;BME280;34913;47.520;19.186;2022-08-01T05:43:12;99678.66;;;23.60;49.77
49102;BME280;34913;47.520;19.186;2022-08-01T05:45:37;99683.63;;;23.95;49.42
49102;BME280;34913;47.520;19.186;2022-08-01T05:48:03;99685.00;;;24.04;48.41
49102;BME280;34913;47.520;19.186;2022-08-01T05:50:28;99688.13;;;24.26;47.93
49102;BME280;34913;47.520;19.186;2022-08-01T05:52:54;99683.69;;;24.32;48.18
49102;BME280;34913;47.520;19.186;2022-08-01T05:55:19;99684.28;;;24.59;48.76
49102;BME280;34913;47.520;19.186;2022-08-01T05:57:46;99680.97;;;24.32;48.59
49102;BME280;34913;47.520;19.186;2022-08-01T06:00:11;99678.63;;;24.42;48.78
49102;BME280;34913;47.520;19.186;2022-08-01T06:02:41;99671.16;;;24.74;48.31
49102;BME280;34913;47.520;19.186;2022-08-01T06:05:08;99673.66;;;24.75;48.19
49102;BME280;34913;47.520;19.186;2022-08-01T06:07:33;99675.81;;;25.03;47.26
49102;BME280;34913;47.520;19.186;2022-08-01T06:09:59;99677.28;;;25.06;47.43
49102;BME280;34913;47.520;19.186;2022-08-01T06:12:24;99677.13;;;25.61;46.56
49102;BME280;34913;47.520;19.186;2022-08-01T06:14:50;99664.78;;;25.47;45.00
49102;BME280;34913;47.520;19.186;2022-08-01T06:17:15;99665.69;;;25.71;45.38
49102;BME280;34913;47.520;19.186;2022-08-01T06:19:40;99677.78;;;25.86;45.98
49102;BME280;34913;47.520;19.186;2022-08-01T06:22:06;99682.44;;;26.21;44.71
49102;BME280;34913;47.520;19.186;2022-08-01T06:24:31;99674.72;;;26.30;44.95
49102;BME280;34913;47.520;19.186;2022-08-01T06:26:57;99662.78;;;26.54;44.27
49102;BME280;34913;47.520;19.186;2022-08-01T06:29:22;99677.53;;;26.82;43.75
49102;BME280;34913;47.520;19.186;2022-08-01T06:31:47;99675.91;;;26.81;44.13
49102;BME280;34913;47.520;19.186;2022-08-01T06:34:13;99671.34;;;26.98;42.67
49102;BME280;34913;47.520;19.186;2022-08-01T06:36:40;99678.88;;;27.19;42.77
49102;BME280;34913;47.520;19.186;2022-08-01T06:39:05;99681.69;;;27.24;42.37
49102;BME280;34913;47.520;19.186;2022-08-01T06:41:31;99682.19;;;27.50;42.55
49102;BME280;34913;47.520;19.186;2022-08-01T06:43:56;99689.50;;;27.78;40.73
49102;BME280;34913;47.520;19.186;2022-08-01T06:46:22;99677.38;;;27.86;39.68
49102;BME280;34913;47.520;19.186;2022-08-01T06:48:47;99684.41;;;27.98;39.47
49102;BME280;34913;47.520;19.186;2022-08-01T06:51:12;99683.22;;;27.94;39.01
49102;BME280;34913;47.520;19.186;2022-08-01T06:53:43;99686.13;;;27.88;39.62
49102;BME280;34913;47.520;19.186;2022-08-01T06:56:08;99685.72;;;27.79;39.58
49102;BME280;34913;47.520;19.186;2022-08-01T06:58:34;99691.41;;;27.94;37.59
49102;BME280;34913;47.520;19.186;2022-08-01T07:01:00;99689.34;;;27.85;39.18
49102;BME280;34913;47.520;19.186;2022-08-01T07:03:26;99684.66;;;27.97;39.13
49102;BME280;34913;47.520;19.186;2022-08-01T07:05:52;99694.09;;;28.06;40.03
49102;BME280;34913;47.520;19.186;2022-08-01T07:08:17;99680.47;;;28.28;39.35
49102;BME280;34913;47.520;19.186;2022-08-01T07:10:43;99678.50;;;28.40;37.66
49102;BME280;34913;47.520;19.186;2022-08-01T07:13:09;99674.34;;;28.54;38.37
49102;BME280;34913;47.520;19.186;2022-08-01T07:15:34;99672.31;;;28.67;37.17
49102;BME280;34913;47.520;19.186;2022-08-01T07:18:00;99676.84;;;28.78;37.50
49102;BME280;34913;47.520;19.186;2022-08-01T07:20:28;99665.53;;;28.69;37.71
49102;BME280;34913;47.520;19.186;2022-08-01T07:22:54;99671.09;;;28.57;38.13
49102;BME280;34913;47.520;19.186;2022-08-01T07:25:19;99676.72;;;28.68;37.85
49102;BME280;34913;47.520;19.186;2022-08-01T07:27:45;99673.56;;;28.76;37.21
49102;BME280;34913;47.520;19.186;2022-08-01T07:30:11;99664.59;;;29.02;38.36
49102;BME280;34913;47.520;19.186;2022-08-01T07:32:37;99670.34;;;29.28;36.54
49102;BME280;34913;47.520;19.186;2022-08-01T07:35:03;99669.53;;;29.27;36.93
49102;BME280;34913;47.520;19.186;2022-08-01T07:37:29;99680.72;;;29.26;37.72
49102;BME280;34913;47.520;19.186;2022-08-01T07:39:54;99677.25;;;29.35;36.31
49102;BME280;34913;47.520;19.186;2022-08-01T07:42:20;99680.00;;;29.35;37.12
49102;BME280;34913;47.520;19.186;2022-08-01T07:44:45;99673.09;;;29.28;35.76
49102;BME280;34913;47.520;19.186;2022-08-01T07:47:10;99682.47;;;29.37;35.30
49102;BME280;34913;47.520;19.186;2022-08-01T07:49:36;99678.72;;;29.43;35.81
49102;BME280;34913;47.520;19.186;2022-08-01T07:52:02;99680.47;;;29.54;35.43
49102;BME280;34913;47.520;19.186;2022-08-01T07:54:28;99682.66;;;29.52;36.96
49102;BME280;34913;47.520;19.186;2022-08-01T07:56:54;99680.59;;;29.64;35.36
49102;BME280;34913;47.520;19.186;2022-08-01T07:59:20;99676.56;;;29.72;35.21
49102;BME280;34913;47.520;19.186;2022-08-01T08:01:51;99676.84;;;29.75;36.07
49102;BME280;34913;47.520;19.186;2022-08-01T08:04:17;99678.59;;;29.55;31.15
49102;BME280;34913;47.520;19.186;2022-08-01T08:06:43;99675.34;;;29.58;30.43
49102;BME280;34913;47.520;19.186;2022-08-01T08:09:10;99679.59;;;29.75;30.97
49102;BME280;34913;47.520;19.186;2022-08-01T08:11:36;99683.13;;;29.71;31.25
49102;BME280;34913;47.520;19.186;2022-08-01T08:14:01;99672.69;;;29.68;31.08
49102;BME280;34913;47.520;19.186;2022-08-01T08:16:27;99674.19;;;29.86;31.66
49102;BME280;34913;47.520;19.186;2022-08-01T08:18:53;99676.78;;;29.97;30.77
49102;BME280;34913;47.520;19.186;2022-08-01T08:21:18;99670.00;;;30.05;31.83
49102;BME280;34913;47.520;19.186;2022-08-01T08:23:44;99683.38;;;30.39;32.00
49102;BME280;34913;47.520;19.186;2022-08-01T08:26:28;99678.06;;;30.22;30.60
49102;BME280;34913;47.520;19.186;2022-08-01T08:28:54;99676.81;;;30.35;30.55
49102;BME280;34913;47.520;19.186;2022-08-01T08:31:19;99673.34;;;30.54;29.03
49102;BME280;34913;47.520;19.186;2022-08-01T08:33:44;99665.66;;;30.56;29.11
49102;BME280;34913;47.520;19.186;2022-08-01T08:36:10;99671.13;;;30.99;28.63
49102;BME280;34913;47.520;19.186;2022-08-01T08:38:36;99671.63;;;30.91;29.34
49102;BME280;34913;47.520;19.186;2022-08-01T08:41:02;99677.22;;;30.58;29.58
49102;BME280;34913;47.520;19.186;2022-08-01T08:43:27;99683.69;;;30.47;30.16
49102;BME280;34913;47.520;19.186;2022-08-01T08:45:53;99678.44;;;30.41;30.97
49102;BME280;34913;47.520;19.186;2022-08-01T08:48:19;99682.50;;;29.96;29.70
49102;BME280;34913;47.520;19.186;2022-08-01T08:50:45;99690.38;;;29.60;30.73
49102;BME280;34913;47.520;19.186;2022-08-01T08:53:13;99694.69;;;29.29;33.34
49102;BME280;34913;47.520;19.186;2022-08-01T08:55:41;99698.25;;;28.86;36.38
49102;BME280;34913;47.520;19.186;2022-08-01T08:58:11;99689.66;;;28.55;35.09
49102;BME280;34913;47.520;19.186;2022-08-01T09:00:39;99701.16;;;28.24;37.29
49102;BME280;34913;47.520;19.186;2022-08-01T09:03:05;99693.06;;;27.95;35.36
49102;BME280;34913;47.520;19.186;2022-08-01T09:05:31;99699.69;;;27.54;36.46
49102;BME280;34913;47.520;19.186;2022-08-01T09:07:56;99699.13;;;27.52;36.54
49102;BME280;34913;47.520;19.186;2022-08-01T09:10:22;99690.16;;;27.40;37.24
49102;BME280;34913;47.520;19.186;2022-08-01T09:15:47;99704.66;;;27.29;39.55
49102;BME280;34913;47.520;19.186;2022-08-01T09:18:38;99702.66;;;27.24;39.58
49102;BME280;34913;47.520;19.186;2022-08-01T09:23:38;99701.31;;;27.10;38.84
49102;BME280;34913;47.520;19.186;2022-08-01T09:26:16;99707.56;;;26.98;39.72
49102;BME280;34913;47.520;19.186;2022-08-01T09:28:42;99709.16;;;26.94;38.75
49102;BME280;34913;47.520;19.186;2022-08-01T09:31:14;99715.19;;;26.85;37.83
49102;BME280;34913;47.520;19.186;2022-08-01T09:36:12;99710.56;;;26.85;38.72
49102;BME280;34913;47.520;19.186;2022-08-01T09:38:37;99709.41;;;26.81;39.87
49102;BME280;34913;47.520;19.186;2022-08-01T09:41:03;99708.56;;;26.81;41.41
49102;BME280;34913;47.520;19.186;2022-08-01T09:43:31;99702.38;;;26.85;40.32
49102;BME280;34913;47.520;19.186;2022-08-01T09:45:57;99706.88;;;26.91;39.05
49102;BME280;34913;47.520;19.186;2022-08-01T09:48:26;99708.22;;;26.77;39.03
49102;BME280;34913;47.520;19.186;2022-08-01T09:50:53;99703.47;;;26.84;39.80
49102;BME280;34913;47.520;19.186;2022-08-01T09:53:19;99697.66;;;27.04;39.40
49102;BME280;34913;47.520;19.186;2022-08-01T09:55:44;99710.88;;;27.12;38.95
49102;BME280;34913;47.520;19.186;2022-08-01T09:58:11;99708.13;;;27.24;39.83
49102;BME280;34913;47.520;19.186;2022-08-01T10:00:38;99712.59;;;27.30;39.20
49102;BME280;34913;47.520;19.186;2022-08-01T10:03:25;99711.06;;;27.34;38.83
49102;BME280;34913;47.520;19.186;2022-08-01T10:05:51;99705.78;;;27.44;40.95
49102;BME280;34913;47.520;19.186;2022-08-01T10:08:19;99705.00;;;27.32;37.73
49102;BME280;34913;47.520;19.186;2022-08-01T10:11:06;99710.63;;;27.25;37.72
49102;BME280;34913;47.520;19.186;2022-08-01T10:13:32;99718.72;;;27.37;36.73
49102;BME280;34913;47.520;19.186;2022-08-01T10:15:58;99711.75;;;27.41;38.16
49102;BME280;34913;47.520;19.186;2022-08-01T10:18:24;99716.63;;;27.56;37.75
49102;BME280;34913;47.520;19.186;2022-08-01T10:20:50;99707.63;;;27.55;37.64
49102;BME280;34913;47.520;19.186;2022-08-01T10:23:16;99704.28;;;27.65;37.87
49102;BME280;34913;47.520;19.186;2022-08-01T10:25:43;99709.13;;;27.92;36.99
49102;BME280;34913;47.520;19.186;2022-08-01T10:28:16;99714.41;;;27.98;37.42
49102;BME280;34913;47.520;19.186;2022-08-01T10:30:43;99701.19;;;27.90;35.55
49102;BME280;34913;47.520;19.186;2022-08-01T10:33:10;99704.31;;;27.82;36.45
49102;BME280;34913;47.520;19.186;2022-08-01T10:35:38;99708.84;;;27.76;35.62
49102;BME280;34913;47.520;19.186;2022-08-01T10:38:03;99693.63;;;27.80;36.86
49102;BME280;34913;47.520;19.186;2022-08-01T10:40:29;99693.25;;;27.89;36.38
49102;BME280;34913;47.520;19.186;2022-08-01T10:42:56;99703.41;;;27.93;36.19
49102;BME280;34913;47.520;19.186;2022-08-01T10:45:22;99697.63;;;27.73;35.60
49102;BME280;34913;47.520;19.186;2022-08-01T10:50:27;99694.97;;;27.78;36.34
49102;BME280;34913;47.520;19.186;2022-08-01T10:53:18;99698.53;;;27.95;36.29
49102;BME280;34913;47.520;19.186;2022-08-01T10:58:30;99700.69;;;28.10;34.66
49102;BME280;34913;47.520;19.186;2022-08-01T11:01:21;99691.81;;;28.03;34.41
49102;BME280;34913;47.520;19.186;2022-08-01T11:06:42;99697.78;;;28.17;33.89
49102;BME280;34913;47.520;19.186;2022-08-01T11:11:57;99696.56;;;28.07;33.90
49102;BME280;34913;47.520;19.186;2022-08-01T11:14:23;99698.72;;;27.89;34.94
49102;BME280;34913;47.520;19.186;2022-08-01T11:16:48;99695.38;;;27.87;35.21
49102;BME280;34913;47.520;19.186;2022-08-01T11:19:14;99683.91;;;27.85;34.26
49102;BME280;34913;47.520;19.186;2022-08-01T11:27:20;99684.56;;;28.08;34.57
49102;BME280;34913;47.520;19.186;2022-08-01T11:35:11;99676.94;;;27.94;34.16
49102;BME280;34913;47.520;19.186;2022-08-01T11:37:37;99666.78;;;28.06;34.81
49102;BME280;34913;47.520;19.186;2022-08-01T11:40:27;99680.75;;;28.09;35.88
49102;BME280;34913;47.520;19.186;2022-08-01T11:46:06;99673.56;;;28.03;33.41
49102;BME280;34913;47.520;19.186;2022-08-01T11:48:32;99673.31;;;27.88;34.07
49102;BME280;34913;47.520;19.186;2022-08-01T11:50:57;99671.66;;;27.70;34.54
49102;BME280;34913;47.520;19.186;2022-08-01T11:53:23;99676.16;;;27.65;34.91
49102;BME280;34913;47.520;19.186;2022-08-01T11:55:53;99667.53;;;27.68;35.26
49102;BME280;34913;47.520;19.186;2022-08-01T11:58:24;99665.72;;;27.90;35.14
49102;BME280;34913;47.520;19.186;2022-08-01T12:00:51;99671.84;;;27.97;33.61
49102;BME280;34913;47.520;19.186;2022-08-01T12:03:26;99663.31;;;28.10;33.99
49102;BME280;34913;47.520;19.186;2022-08-01T12:05:54;99653.13;;;28.23;34.14
49102;BME280;34913;47.520;19.186;2022-08-01T12:08:32;99669.75;;;28.38;34.21
49102;BME280;34913;47.520;19.186;2022-08-01T12:11:00;99657.97;;;28.54;34.11
49102;BME280;34913;47.520;19.186;2022-08-01T12:13:27;99663.56;;;28.64;32.88
49102;BME280;34913;47.520;19.186;2022-08-01T12:15:53;99661.31;;;28.83;33.26
49102;BME280;34913;47.520;19.186;2022-08-01T12:18:19;99662.38;;;28.99;32.61
49102;BME280;34913;47.520;19.186;2022-08-01T12:20:45;99668.00;;;29.14;33.48
49102;BME280;34913;47.520;19.186;2022-08-01T12:23:13;99670.34;;;29.28;33.32
49102;BME280;34913;47.520;19.186;2022-08-01T12:25:39;99656.75;;;29.33;33.65
49102;BME280;34913;47.520;19.186;2022-08-01T12:28:07;99668.03;;;29.41;33.79
49102;BME280;34913;47.520;19.186;2022-08-01T12:30:35;99662.88;;;29.45;34.00
49102;BME280;34913;47.520;19.186;2022-08-01T12:33:04;99658.22;;;29.45;33.82
49102;BME280;34913;47.520;19.186;2022-08-01T12:35:30;99664.00;;;29.49;34.09
49102;BME280;34913;47.520;19.186;2022-08-01T12:38:03;99659.19;;;29.56;34.06
49102;BME280;34913;47.520;19.186;2022-08-01T12:40:36;99658.41;;;29.61;33.98
49102;BME280;34913;47.520;19.186;2022-08-01T12:43:06;99650.72;;;29.58;34.84
49102;BME280;34913;47.520;19.186;2022-08-01T12:45:41;99641.72;;;29.35;35.25
49102;BME280;34913;47.520;19.186;2022-08-01T12:48:12;99645.94;;;29.21;34.67
49102;BME280;34913;47.520;19.186;2022-08-01T12:50:41;99644.47;;;29.35;35.69
49102;BME280;34913;47.520;19.186;2022-08-01T12:53:08;99629.75;;;29.41;35.05
49102;BME280;34913;47.520;19.186;2022-08-01T12:55:45;99642.25;;;29.59;35.27
49102;BME280;34913;47.520;19.186;2022-08-01T12:58:12;99636.88;;;29.42;34.94
49102;BME280;34913;47.520;19.186;2022-08-01T13:00:40;99637.34;;;29.07;35.07
49102;BME280;34913;47.520;19.186;2022-08-01T13:05:53;99633.38;;;29.47;36.65
49102;BME280;34913;47.520;19.186;2022-08-01T13:08:21;99633.84;;;29.66;36.24
49102;BME280;34913;47.520;19.186;2022-08-01T13:10:48;99629.94;;;29.62;33.60
49102;BME280;34913;47.520;19.186;2022-08-01T13:13:15;99628.94;;;29.41;34.43
49102;BME280;34913;47.520;19.186;2022-08-01T13:15:42;99625.03;;;29.59;32.69
49102;BME280;34913;47.520;19.186;2022-08-01T13:21:10;99624.22;;;29.36;34.68
49102;BME280;34913;47.520;19.186;2022-08-01T13:23:36;99628.38;;;29.39;36.55
49102;BME280;34913;47.520;19.186;2022-08-01T13:26:02;99620.09;;;29.56;35.68
49102;BME280;34913;47.520;19.186;2022-08-01T13:28:28;99617.72;;;29.69;35.00
49102;BME280;34913;47.520;19.186;2022-08-01T13:31:05;99623.09;;;29.59;35.73
49102;BME280;34913;47.520;19.186;2022-08-01T13:33:42;99613.53;;;29.62;33.59
49102;BME280;34913;47.520;19.186;2022-08-01T13:36:08;99627.50;;;29.60;32.76
49102;BME280;34913;47.520;19.186;2022-08-01T13:38:33;99627.47;;;29.55;33.23
49102;BME280;34913;47.520;19.186;2022-08-01T13:41:18;99617.47;;;29.44;32.79
49102;BME280;34913;47.520;19.186;2022-08-01T13:43:44;99619.81;;;29.57;33.50
49102;BME280;34913;47.520;19.186;2022-08-01T13:46:10;99617.91;;;29.58;32.77
49102;BME280;34913;47.520;19.186;2022-08-01T13:48:35;99624.31;;;29.46;32.11